EZY23T EGGW-EGPH
Flight info
| Callsign | EZY23T |
|---|---|
| Flight time | N/A |
| Altitude | 34000 |
| Route | OLNEY T420 TNT UN57 POL UN601 RIBEL DCT INPIP |
| Aircraft | A320/M-SDE3FGHIRWY/LB1 |
Departure
| Time | 2026-05-07 18:26 |
|---|---|
| Airport | London Luton Airport (EGGW) |
Arrival
| Time | N/A |
|---|---|
| Airport | Edinburgh Airport (EGPH) |
| Time | Latitude | Longitude | Altitude | Speed | Heading |
|---|---|---|---|---|---|
| 2026-05-07 18:05 | 51.87888 | -0.37925 | 524 ft | 0 kts | 73° |
| 2026-05-07 18:19 | 51.87883 | -0.37952 | 523 ft | 4 kts | 73° |
| 2026-05-07 18:19 | 51.87876 | -0.37985 | 523 ft | 4 kts | 89° |
| 2026-05-07 18:20 | 51.87885 | -0.38012 | 523 ft | 4 kts | 167° |
| 2026-05-07 18:20 | 51.87906 | -0.38017 | 523 ft | 1 kts | 174° |
| 2026-05-07 18:20 | 51.87907 | -0.38017 | 523 ft | 0 kts | 174° |
| 2026-05-07 18:21 | 51.87906 | -0.38017 | 523 ft | 1 kts | 174° |
| 2026-05-07 18:22 | 51.87887 | -0.38012 | 523 ft | 9 kts | 168° |
| 2026-05-07 18:22 | 51.87843 | -0.37988 | 523 ft | 11 kts | 154° |
| 2026-05-07 18:22 | 51.87775 | -0.37852 | 523 ft | 13 kts | 113° |
| 2026-05-07 18:22 | 51.87738 | -0.37709 | 522 ft | 16 kts | 113° |
| 2026-05-07 18:23 | 51.87683 | -0.37526 | 521 ft | 18 kts | 128° |
| 2026-05-07 18:23 | 51.87569 | -0.37460 | 522 ft | 19 kts | 185° |
| 2026-05-07 18:23 | 51.87489 | -0.37600 | 523 ft | 18 kts | 259° |
| 2026-05-07 18:23 | 51.87461 | -0.37788 | 522 ft | 17 kts | 253° |
| 2026-05-07 18:24 | 51.87427 | -0.37971 | 524 ft | 16 kts | 249° |
| 2026-05-07 18:24 | 51.87357 | -0.38074 | 523 ft | 3 kts | 205° |
| 2026-05-07 18:24 | 51.87313 | -0.38108 | 522 ft | 11 kts | 205° |
| 2026-05-07 18:24 | 51.87260 | -0.38065 | 523 ft | 9 kts | 106° |
| 2026-05-07 18:25 | 51.87263 | -0.38004 | 524 ft | 0 kts | 74° |
| 2026-05-07 18:25 | 51.87294 | -0.37836 | 525 ft | 50 kts | 74° |
| 2026-05-07 18:25 | 51.87448 | -0.36909 | 523 ft | 117 kts | 74° |
| 2026-05-07 18:25 | 51.87683 | -0.35404 | 771 ft | 145 kts | 80° |
| 2026-05-07 18:26 | 51.87886 | -0.33798 | 1464 ft | 147 kts | 81° |
| 2026-05-07 18:26 | 51.88156 | -0.32149 | 2010 ft | 161 kts | 75° |
| 2026-05-07 18:26 | 51.88509 | -0.30306 | 2391 ft | 182 kts | 75° |
| 2026-05-07 18:26 | 51.88919 | -0.28247 | 2701 ft | 202 kts | 69° |
| 2026-05-07 18:27 | 51.89849 | -0.26547 | 3182 ft | 213 kts | 26° |
| 2026-05-07 18:27 | 51.91301 | -0.26342 | 3744 ft | 216 kts | 342° |
| 2026-05-07 18:27 | 51.92491 | -0.27806 | 4177 ft | 227 kts | 300° |
| 2026-05-07 18:27 | 51.92851 | -0.29472 | 4390 ft | 242 kts | 277° |
| 2026-05-07 18:28 | 51.92905 | -0.33279 | 5173 ft | 263 kts | 265° |
| 2026-05-07 18:28 | 51.92766 | -0.36272 | 5817 ft | 269 kts | 264° |
| 2026-05-07 18:28 | 51.92909 | -0.39279 | 5982 ft | 269 kts | 286° |
| 2026-05-07 18:28 | 51.93857 | -0.41868 | 6007 ft | 270 kts | 311° |
| 2026-05-07 18:29 | 51.95159 | -0.44070 | 6009 ft | 270 kts | 313° |
| 2026-05-07 18:29 | 51.96477 | -0.46249 | 6009 ft | 270 kts | 314° |
| 2026-05-07 18:29 | 51.97780 | -0.48392 | 6008 ft | 270 kts | 314° |
| 2026-05-07 18:29 | 51.99105 | -0.50567 | 6008 ft | 270 kts | 314° |
| 2026-05-07 18:30 | 52.00425 | -0.52746 | 6006 ft | 270 kts | 313° |
| 2026-05-07 18:30 | 52.01741 | -0.54933 | 6007 ft | 270 kts | 313° |
| 2026-05-07 18:30 | 52.03057 | -0.57124 | 6006 ft | 270 kts | 313° |
| 2026-05-07 18:30 | 52.04368 | -0.59308 | 5992 ft | 270 kts | 313° |
| 2026-05-07 18:31 | 52.05234 | -0.60757 | 5995 ft | 269 kts | 313° |
| 2026-05-07 18:31 | 52.06539 | -0.62938 | 5993 ft | 268 kts | 313° |
| 2026-05-07 18:31 | 52.08257 | -0.65820 | 5993 ft | 268 kts | 313° |
| 2026-05-07 18:31 | 52.09554 | -0.67997 | 5993 ft | 268 kts | 313° |
| 2026-05-07 18:32 | 52.10850 | -0.70170 | 5993 ft | 268 kts | 313° |
| 2026-05-07 18:32 | 52.11727 | -0.71640 | 5993 ft | 268 kts | 313° |
| 2026-05-07 18:32 | 52.13102 | -0.73694 | 5993 ft | 269 kts | 323° |
| 2026-05-07 18:32 | 52.14724 | -0.75319 | 6580 ft | 274 kts | 328° |
| 2026-05-07 18:33 | 52.16358 | -0.76917 | 7578 ft | 275 kts | 327° |
| 2026-05-07 18:33 | 52.18006 | -0.78547 | 8463 ft | 280 kts | 327° |
| 2026-05-07 18:33 | 52.19660 | -0.80191 | 9307 ft | 284 kts | 327° |
| 2026-05-07 18:33 | 52.21363 | -0.81885 | 10129 ft | 290 kts | 327° |
| 2026-05-07 18:34 | 52.23170 | -0.83681 | 10513 ft | 312 kts | 327° |
| 2026-05-07 18:34 | 52.25065 | -0.85569 | 10895 ft | 330 kts | 327° |
| 2026-05-07 18:34 | 52.27051 | -0.87541 | 11579 ft | 337 kts | 327° |
| 2026-05-07 18:34 | 52.29073 | -0.89548 | 12317 ft | 343 kts | 327° |
| 2026-05-07 18:35 | 52.31125 | -0.91584 | 13044 ft | 348 kts | 327° |